createdAt,value
2022-08-31T00:01:03.741Z,92.59
2022-08-31T00:03:50.020Z,92.96
2022-08-31T00:06:18.766Z,92.85
2022-08-31T00:08:47.496Z,92.67
2022-08-31T00:11:17.003Z,93.00
2022-08-31T00:13:46.625Z,93.01
2022-08-31T00:16:17.008Z,93.39
2022-08-31T00:18:47.089Z,93.38
2022-08-31T00:21:15.737Z,93.49
2022-08-31T00:23:44.436Z,93.56
2022-08-31T00:26:13.085Z,93.71
2022-08-31T00:28:41.943Z,93.30
2022-08-31T00:31:12.717Z,93.59
2022-08-31T00:33:44.125Z,93.19
2022-08-31T00:36:15.385Z,93.35
2022-08-31T00:38:44.375Z,93.23
2022-08-31T00:41:13.541Z,93.09
2022-08-31T00:43:48.054Z,93.21
2022-08-31T00:46:21.377Z,93.25
2022-08-31T00:49:03.481Z,93.37
2022-08-31T00:51:40.677Z,93.47
2022-08-31T00:54:13.841Z,93.66
2022-08-31T00:56:45.200Z,93.29
2022-08-31T00:59:16.286Z,93.07
2022-08-31T01:01:45.840Z,92.94
2022-08-31T01:04:16.755Z,93.39
2022-08-31T01:06:46.538Z,93.38
2022-08-31T01:09:16.248Z,93.67
2022-08-31T01:11:46.060Z,93.41
2022-08-31T01:14:15.634Z,93.71
2022-08-31T01:16:50.022Z,94.00
2022-08-31T01:19:31.490Z,93.86
2022-08-31T01:22:13.952Z,93.78
2022-08-31T01:24:48.867Z,93.56
2022-08-31T01:27:23.127Z,93.34
2022-08-31T01:29:52.151Z,93.09
2022-08-31T01:32:21.390Z,93.16
2022-08-31T01:34:50.169Z,93.15
2022-08-31T01:37:19.096Z,92.90
2022-08-31T01:39:59.523Z,93.38
2022-08-31T01:42:30.897Z,93.38
2022-08-31T01:45:02.471Z,93.49
2022-08-31T01:47:33.727Z,93.60
2022-08-31T01:50:03.221Z,93.44
2022-08-31T01:52:34.149Z,92.70
2022-08-31T01:55:05.466Z,93.21
2022-08-31T01:57:34.840Z,93.27
2022-08-31T02:00:22.299Z,93.21
2022-08-31T02:02:51.218Z,93.47
2022-08-31T02:05:21.424Z,92.97
2022-08-31T02:07:50.253Z,93.10
2022-08-31T02:10:20.375Z,93.15
2022-08-31T02:12:49.696Z,93.25
2022-08-31T02:15:18.833Z,92.89
2022-08-31T02:17:48.504Z,92.82
2022-08-31T02:20:22.352Z,92.85
2022-08-31T02:22:52.066Z,92.64
2022-08-31T02:25:22.574Z,92.68
2022-08-31T02:27:51.338Z,93.01
2022-08-31T02:30:20.998Z,93.27
2022-08-31T02:32:49.756Z,93.46
2022-08-31T02:35:18.729Z,92.88
2022-08-31T02:37:48.121Z,93.04
2022-08-31T02:40:17.538Z,92.86
2022-08-31T02:42:53.225Z,93.03
2022-08-31T02:45:25.687Z,93.05
2022-08-31T02:47:59.093Z,92.64
2022-08-31T02:50:31.143Z,93.21
2022-08-31T02:53:00.682Z,93.03
2022-08-31T02:55:29.606Z,92.75
2022-08-31T02:57:59.742Z,93.04
2022-08-31T03:00:28.518Z,92.98
2022-08-31T03:02:57.453Z,93.10
2022-08-31T03:05:28.016Z,93.25
2022-08-31T03:07:57.047Z,93.13
2022-08-31T03:10:27.726Z,92.97
2022-08-31T03:12:57.680Z,92.54
2022-08-31T03:15:29.944Z,92.70
2022-08-31T03:17:59.329Z,92.82
2022-08-31T03:20:30.151Z,92.96
2022-08-31T03:23:03.092Z,92.75
2022-08-31T03:25:33.577Z,92.87
2022-08-31T03:28:02.413Z,92.75
2022-08-31T03:30:35.824Z,93.13
2022-08-31T03:33:10.088Z,92.89
2022-08-31T03:35:43.739Z,93.02
2022-08-31T03:38:12.858Z,92.93
2022-08-31T03:40:42.309Z,93.24
2022-08-31T03:43:12.109Z,92.81
2022-08-31T03:45:44.645Z,92.91
2022-08-31T03:48:13.725Z,93.05
2022-08-31T03:50:46.148Z,93.11
2022-08-31T03:53:22.890Z,93.67
2022-08-31T03:56:01.200Z,93.72
2022-08-31T03:58:33.250Z,94.00
2022-08-31T04:01:04.274Z,93.78
2022-08-31T04:03:59.331Z,93.32
2022-08-31T04:06:48.435Z,92.63
2022-08-31T04:09:43.204Z,92.53
2022-08-31T04:12:32.176Z,92.99
2022-08-31T04:15:15.674Z,92.76
2022-08-31T04:18:12.154Z,92.81
2022-08-31T04:20:49.420Z,92.87
2022-08-31T04:23:19.399Z,92.34
2022-08-31T04:25:51.910Z,92.45
2022-08-31T04:28:20.626Z,92.07
2022-08-31T04:30:49.945Z,92.25
2022-08-31T04:33:20.209Z,92.72
2022-08-31T04:35:49.089Z,92.47
2022-08-31T04:38:17.922Z,92.14
2022-08-31T04:40:47.752Z,91.55
2022-08-31T04:43:16.909Z,91.39
2022-08-31T04:45:46.225Z,91.62
2022-08-31T04:48:16.368Z,91.31
2022-08-31T04:50:50.758Z,91.68
2022-08-31T04:53:19.575Z,91.90
2022-08-31T04:55:48.406Z,92.17
2022-08-31T04:58:20.580Z,92.14
2022-08-31T05:00:49.365Z,91.82
2022-08-31T05:03:18.937Z,92.10
2022-08-31T05:05:52.429Z,92.33
2022-08-31T05:08:21.999Z,91.94
2022-08-31T05:10:51.548Z,92.14
2022-08-31T05:13:21.637Z,91.56
2022-08-31T05:15:54.855Z,91.56
2022-08-31T05:18:26.392Z,91.13
2022-08-31T05:21:11.834Z,91.66
2022-08-31T05:23:41.241Z,92.26
2022-08-31T05:26:11.064Z,91.90
2022-08-31T05:28:40.323Z,91.91
2022-08-31T05:31:12.054Z,92.28
2022-08-31T05:33:46.726Z,91.37
2022-08-31T05:36:18.890Z,90.89
2022-08-31T05:38:47.835Z,91.95
2022-08-31T05:41:16.671Z,91.49
2022-08-31T05:43:45.420Z,92.30
2022-08-31T05:46:16.731Z,91.65
2022-08-31T05:48:46.694Z,91.39
2022-08-31T05:51:21.100Z,90.72
2022-08-31T05:53:50.648Z,90.83
2022-08-31T05:56:23.500Z,91.17
2022-08-31T05:58:54.703Z,91.28
2022-08-31T06:01:26.314Z,90.79
2022-08-31T06:04:05.582Z,90.83
2022-08-31T06:06:35.817Z,90.18
2022-08-31T06:09:06.427Z,90.19
2022-08-31T06:11:40.559Z,90.51
2022-08-31T06:14:12.094Z,91.20
2022-08-31T06:16:45.540Z,91.54
2022-08-31T06:19:17.057Z,91.04
2022-08-31T06:21:52.145Z,91.35
2022-08-31T06:24:28.247Z,91.29
2022-08-31T06:26:59.697Z,91.08
2022-08-31T06:29:38.896Z,90.73
2022-08-31T06:32:10.298Z,90.61
2022-08-31T06:34:50.437Z,90.26
2022-08-31T06:37:43.367Z,89.89
2022-08-31T06:40:32.667Z,89.33
2022-08-31T06:43:40.181Z,90.48
2022-08-31T06:46:24.760Z,90.44
2022-08-31T06:49:04.718Z,90.20
2022-08-31T06:51:38.255Z,90.08
2022-08-31T06:54:29.779Z,89.89
2022-08-31T06:57:17.422Z,90.10
2022-08-31T07:00:06.546Z,90.26
2022-08-31T07:03:23.122Z,90.57
2022-08-31T07:05:54.369Z,91.09
2022-08-31T07:08:24.026Z,90.83
2022-08-31T07:10:55.212Z,91.07
2022-08-31T07:13:24.269Z,91.37
2022-08-31T07:15:53.125Z,91.90
2022-08-31T07:18:21.880Z,91.73
2022-08-31T07:20:50.590Z,91.83
2022-08-31T07:23:20.354Z,91.56
2022-08-31T07:25:57.340Z,91.27
2022-08-31T07:28:26.359Z,91.06
2022-08-31T07:30:55.263Z,90.52
2022-08-31T07:33:25.129Z,90.51
2022-08-31T07:35:58.744Z,90.54
2022-08-31T07:39:04.363Z,90.73
2022-08-31T07:41:50.247Z,91.17
2022-08-31T07:44:28.876Z,91.08
2022-08-31T07:46:58.198Z,90.94
2022-08-31T07:49:26.916Z,91.33
2022-08-31T07:52:21.848Z,90.61
2022-08-31T07:55:11.991Z,90.58
2022-08-31T07:58:17.562Z,90.88
2022-08-31T08:00:49.933Z,90.93
2022-08-31T08:03:18.785Z,90.84
2022-08-31T08:06:16.846Z,90.75
2022-08-31T08:09:24.596Z,91.35
2022-08-31T08:12:13.423Z,91.50
2022-08-31T08:15:13.078Z,91.09
2022-08-31T08:18:20.256Z,90.77
2022-08-31T08:20:53.009Z,90.77
2022-08-31T08:23:28.340Z,91.08
2022-08-31T08:26:35.938Z,91.41
2022-08-31T08:29:21.202Z,91.40
2022-08-31T08:31:54.587Z,91.79
2022-08-31T08:34:31.529Z,92.34
2022-08-31T08:37:03.559Z,92.93
2022-08-31T08:39:32.327Z,92.33
2022-08-31T08:42:12.351Z,92.02
2022-08-31T08:44:42.997Z,92.99
2022-08-31T08:47:19.086Z,92.84
2022-08-31T08:49:56.245Z,92.58
2022-08-31T08:52:31.616Z,92.04
2022-08-31T08:55:06.886Z,92.53
2022-08-31T08:57:41.352Z,92.82
2022-08-31T09:00:16.393Z,92.93
2022-08-31T09:02:58.320Z,92.62
2022-08-31T09:06:09.680Z,92.97
2022-08-31T09:09:23.580Z,92.27
2022-08-31T09:12:23.059Z,92.15
2022-08-31T09:15:36.737Z,91.79
2022-08-31T09:18:25.065Z,92.66
2022-08-31T09:21:06.653Z,92.28
2022-08-31T09:23:44.311Z,92.47
2022-08-31T09:26:19.349Z,92.37
2022-08-31T09:29:04.070Z,92.55
2022-08-31T09:31:38.723Z,92.35
2022-08-31T09:34:24.871Z,92.14
2022-08-31T09:36:57.750Z,92.28
2022-08-31T09:39:36.919Z,92.04
2022-08-31T09:42:20.187Z,92.33
2022-08-31T09:44:51.681Z,91.74
2022-08-31T09:47:51.352Z,92.24
2022-08-31T09:50:36.941Z,92.38
2022-08-31T09:53:54.827Z,91.11
2022-08-31T09:56:26.265Z,92.18
2022-08-31T09:59:01.655Z,92.74
2022-08-31T10:01:45.107Z,92.93
2022-08-31T10:04:23.480Z,92.96
2022-08-31T10:07:08.128Z,93.18
2022-08-31T10:09:47.092Z,92.65
2022-08-31T10:12:24.140Z,92.12
2022-08-31T10:15:01.017Z,92.41
2022-08-31T10:17:38.146Z,92.88
2022-08-31T10:20:15.744Z,93.40
2022-08-31T10:22:52.452Z,93.31
2022-08-31T10:25:31.248Z,93.46
2022-08-31T10:28:12.725Z,93.12
2022-08-31T10:30:51.535Z,92.81
2022-08-31T10:33:47.523Z,92.81
2022-08-31T10:36:18.044Z,92.47
2022-08-31T10:38:52.319Z,92.16
2022-08-31T10:41:27.931Z,92.00
2022-08-31T10:44:18.292Z,92.27
2022-08-31T10:46:47.720Z,92.43
2022-08-31T10:49:16.467Z,92.63
2022-08-31T10:51:52.199Z,92.71
2022-08-31T10:54:40.442Z,93.03
2022-08-31T10:57:31.605Z,92.99
2022-08-31T11:00:08.703Z,93.02
2022-08-31T11:02:58.555Z,93.20
2022-08-31T11:05:36.296Z,93.47
2022-08-31T11:08:27.036Z,93.32
2022-08-31T11:11:00.314Z,93.84
2022-08-31T11:14:08.342Z,93.80
2022-08-31T11:17:15.321Z,93.70
2022-08-31T11:20:25.136Z,93.91
2022-08-31T11:23:28.068Z,93.89
2022-08-31T11:26:47.278Z,93.68
2022-08-31T11:29:43.366Z,93.52
2022-08-31T11:32:22.774Z,93.44
2022-08-31T11:34:55.444Z,93.56
2022-08-31T11:37:57.934Z,93.46
2022-08-31T11:41:14.158Z,92.94
2022-08-31T11:43:53.912Z,93.25
2022-08-31T11:46:47.459Z,92.82
2022-08-31T11:49:50.372Z,92.63
2022-08-31T11:52:43.272Z,92.93
2022-08-31T11:55:28.751Z,92.26
2022-08-31T11:58:34.643Z,92.85
2022-08-31T12:01:33.940Z,93.34
2022-08-31T12:04:06.547Z,92.87
2022-08-31T12:07:11.277Z,93.11
2022-08-31T12:10:32.597Z,92.87
2022-08-31T12:13:36.926Z,93.32
2022-08-31T12:16:53.585Z,92.90
2022-08-31T12:20:02.259Z,93.26
2022-08-31T12:23:35.554Z,92.90
2022-08-31T12:26:44.905Z,92.64
2022-08-31T12:29:29.946Z,92.62
2022-08-31T12:32:28.894Z,92.76
2022-08-31T12:35:12.833Z,92.61
2022-08-31T12:37:42.294Z,92.17
2022-08-31T12:40:20.599Z,92.34
2022-08-31T12:43:02.395Z,92.31
2022-08-31T12:46:21.591Z,91.38
2022-08-31T12:49:47.909Z,91.75
2022-08-31T12:52:35.517Z,90.81
2022-08-31T12:55:24.877Z,90.54
2022-08-31T12:58:32.716Z,90.96
2022-08-31T13:01:12.756Z,91.00
2022-08-31T13:03:46.980Z,90.98
2022-08-31T13:06:29.244Z,90.74
2022-08-31T13:08:59.689Z,91.16
2022-08-31T13:11:39.924Z,91.06
2022-08-31T13:14:15.554Z,91.31
2022-08-31T13:16:49.272Z,90.99
2022-08-31T13:19:26.001Z,91.17
2022-08-31T13:21:59.202Z,90.98
2022-08-31T13:24:34.827Z,91.01
2022-08-31T13:27:11.547Z,90.82
2022-08-31T13:29:48.233Z,91.53
2022-08-31T13:32:34.159Z,90.89
2022-08-31T13:35:06.281Z,90.11
2022-08-31T13:37:42.031Z,90.87
2022-08-31T13:40:18.148Z,91.37
2022-08-31T13:42:56.487Z,91.37
2022-08-31T13:45:31.263Z,91.29
2022-08-31T13:48:10.190Z,91.56
2022-08-31T13:50:52.753Z,92.02
2022-08-31T13:53:39.823Z,91.96
2022-08-31T13:56:42.965Z,92.72
2022-08-31T13:59:37.323Z,92.48
2022-08-31T14:02:36.844Z,92.43
2022-08-31T14:05:10.557Z,91.96
2022-08-31T14:08:02.174Z,92.27
2022-08-31T14:10:37.701Z,92.62
2022-08-31T14:13:18.603Z,92.05
2022-08-31T14:15:55.084Z,91.78
2022-08-31T14:18:28.625Z,91.62
2022-08-31T14:21:29.010Z,91.83
2022-08-31T14:24:02.513Z,91.84
2022-08-31T14:26:35.124Z,92.35
2022-08-31T14:29:10.557Z,92.28
2022-08-31T14:31:48.618Z,92.30
2022-08-31T14:34:26.136Z,91.98
2022-08-31T14:37:02.535Z,91.71
2022-08-31T14:39:33.780Z,92.14
2022-08-31T14:42:07.240Z,91.90
2022-08-31T14:44:40.542Z,91.93
2022-08-31T14:47:11.738Z,91.95
2022-08-31T14:49:41.180Z,92.09
2022-08-31T14:52:13.059Z,92.28
2022-08-31T14:54:41.840Z,92.47
2022-08-31T14:57:15.138Z,92.79
2022-08-31T14:59:46.858Z,92.19
2022-08-31T15:02:21.499Z,92.03
2022-08-31T15:04:51.213Z,92.19
2022-08-31T15:07:21.722Z,92.44
2022-08-31T15:09:50.952Z,92.63
2022-08-31T15:12:20.047Z,92.18
2022-08-31T15:14:49.923Z,93.07
2022-08-31T15:17:20.922Z,92.42
2022-08-31T15:19:56.105Z,92.34
2022-08-31T15:22:28.130Z,92.18
2022-08-31T15:24:57.329Z,92.61
2022-08-31T15:27:29.209Z,92.57
2022-08-31T15:30:04.515Z,92.48
2022-08-31T15:32:33.629Z,92.16
2022-08-31T15:35:02.325Z,92.32
2022-08-31T15:37:33.075Z,92.77
2022-08-31T15:40:05.411Z,92.79
2022-08-31T15:42:39.848Z,93.04
2022-08-31T15:45:10.773Z,92.72
2022-08-31T15:47:59.507Z,92.69
2022-08-31T15:50:32.203Z,92.10
2022-08-31T15:53:14.427Z,92.79
2022-08-31T15:55:45.039Z,92.59
2022-08-31T15:58:13.800Z,92.76
2022-08-31T16:00:42.807Z,92.70
2022-08-31T16:03:12.691Z,92.95
2022-08-31T16:05:43.575Z,93.02
2022-08-31T16:08:14.443Z,92.90
2022-08-31T16:10:47.304Z,93.03
2022-08-31T16:13:17.338Z,92.84
2022-08-31T16:15:52.230Z,92.67
2022-08-31T16:18:22.795Z,92.40
2022-08-31T16:20:52.068Z,93.20
2022-08-31T16:23:24.911Z,93.24
2022-08-31T16:25:54.139Z,93.40
2022-08-31T16:28:22.998Z,92.46
2022-08-31T16:30:52.513Z,92.75
2022-08-31T16:33:21.858Z,93.21
2022-08-31T16:35:51.735Z,92.83
2022-08-31T16:38:22.072Z,92.46
2022-08-31T16:40:53.343Z,92.54
2022-08-31T16:43:22.326Z,92.73
2022-08-31T16:45:51.311Z,92.90
2022-08-31T16:48:37.761Z,93.07
2022-08-31T16:51:14.738Z,92.63
2022-08-31T16:53:47.252Z,92.60
2022-08-31T16:56:17.105Z,93.04
2022-08-31T16:58:52.041Z,92.66
2022-08-31T17:01:26.118Z,92.89
2022-08-31T17:03:58.105Z,92.86
2022-08-31T17:06:29.502Z,92.63
2022-08-31T17:09:03.434Z,92.91
2022-08-31T17:11:35.817Z,93.01
2022-08-31T17:14:09.929Z,92.84
2022-08-31T17:16:41.788Z,92.90
2022-08-31T17:19:14.153Z,92.88
2022-08-31T17:21:50.721Z,93.32
2022-08-31T17:24:25.593Z,93.58
2022-08-31T17:26:59.616Z,93.80
2022-08-31T17:29:32.269Z,93.68
2022-08-31T17:32:16.842Z,93.64
2022-08-31T17:34:51.160Z,93.37
2022-08-31T17:37:27.266Z,93.61
2022-08-31T17:40:03.984Z,93.26
2022-08-31T17:42:38.936Z,93.69
2022-08-31T17:45:15.813Z,93.69
2022-08-31T17:48:03.571Z,93.79
2022-08-31T17:50:32.925Z,93.65
2022-08-31T17:53:02.155Z,93.95
2022-08-31T17:55:32.835Z,93.96
2022-08-31T17:58:01.974Z,93.92
2022-08-31T18:00:32.961Z,94.21
2022-08-31T18:03:02.419Z,93.99
2022-08-31T18:05:31.924Z,94.14
2022-08-31T18:08:03.428Z,94.07
2022-08-31T18:10:34.167Z,93.91
2022-08-31T18:13:06.297Z,93.96
2022-08-31T18:15:36.573Z,93.67
2022-08-31T18:18:08.004Z,94.09
2022-08-31T18:20:40.154Z,93.74
2022-08-31T18:23:10.073Z,93.78
2022-08-31T18:25:43.043Z,94.04
2022-08-31T18:28:12.684Z,93.70
2022-08-31T18:30:42.194Z,94.02
2022-08-31T18:33:17.421Z,94.31
2022-08-31T18:35:51.317Z,94.25
2022-08-31T18:38:20.656Z,94.02
2022-08-31T18:41:08.891Z,94.09
2022-08-31T18:43:56.176Z,94.03
2022-08-31T18:46:26.210Z,94.21
2022-08-31T18:49:01.172Z,94.54
2022-08-31T18:51:46.538Z,94.23
2022-08-31T18:54:16.294Z,94.23
2022-08-31T18:56:50.320Z,94.09
2022-08-31T18:59:21.821Z,94.09
2022-08-31T19:01:51.934Z,94.08
2022-08-31T19:04:22.167Z,93.98
2022-08-31T19:06:52.160Z,93.63
2022-08-31T19:09:24.230Z,94.12
2022-08-31T19:11:56.126Z,93.80
2022-08-31T19:14:26.559Z,93.87
2022-08-31T19:17:03.956Z,93.86
2022-08-31T19:19:34.592Z,93.63
2022-08-31T19:22:04.085Z,93.66
2022-08-31T19:24:33.478Z,93.21
2022-08-31T19:27:07.280Z,92.76
2022-08-31T19:29:37.024Z,92.86
2022-08-31T19:32:09.003Z,93.20
2022-08-31T19:34:41.098Z,92.90
2022-08-31T19:37:11.070Z,92.91
2022-08-31T19:39:43.204Z,92.95
2022-08-31T19:42:16.504Z,92.77
2022-08-31T19:44:55.820Z,92.96
2022-08-31T19:47:38.990Z,93.02
2022-08-31T19:50:13.565Z,92.67
2022-08-31T19:52:43.693Z,92.53
2022-08-31T19:55:13.812Z,92.74
2022-08-31T19:57:44.828Z,92.84
2022-08-31T20:00:16.248Z,92.63
2022-08-31T20:02:45.509Z,92.93
2022-08-31T20:05:15.894Z,92.86
2022-08-31T20:07:45.631Z,92.20
2022-08-31T20:10:15.089Z,92.65
2022-08-31T20:12:46.788Z,92.43
2022-08-31T20:15:16.889Z,92.53
2022-08-31T20:17:48.135Z,92.56
2022-08-31T20:20:17.365Z,92.66
2022-08-31T20:22:48.461Z,92.47
2022-08-31T20:25:18.976Z,92.39
2022-08-31T20:27:50.617Z,92.19
2022-08-31T20:30:20.084Z,92.21
2022-08-31T20:32:48.890Z,92.57
2022-08-31T20:35:19.135Z,92.27
2022-08-31T20:37:48.134Z,92.50
2022-08-31T20:40:17.377Z,92.24
2022-08-31T20:42:46.351Z,92.14
2022-08-31T20:45:16.597Z,92.14
2022-08-31T20:48:02.671Z,92.49
2022-08-31T20:50:32.332Z,92.99
2022-08-31T20:53:01.130Z,92.51
2022-08-31T20:55:29.868Z,92.44
2022-08-31T20:57:58.547Z,92.16
2022-08-31T21:00:29.840Z,92.07
2022-08-31T21:03:00.400Z,91.32
2022-08-31T21:05:38.930Z,91.73
2022-08-31T21:08:08.853Z,91.26
2022-08-31T21:10:40.331Z,91.23
2022-08-31T21:13:12.767Z,91.61
2022-08-31T21:15:46.096Z,91.43
2022-08-31T21:18:17.796Z,91.08
2022-08-31T21:20:47.738Z,90.91
2022-08-31T21:23:17.388Z,91.25
2022-08-31T21:25:47.260Z,91.59
2022-08-31T21:28:18.454Z,91.54
2022-08-31T21:30:50.559Z,91.55
2022-08-31T21:33:20.345Z,91.56
2022-08-31T21:35:49.323Z,91.79
2022-08-31T21:38:18.384Z,91.76
2022-08-31T21:40:51.651Z,91.84
2022-08-31T21:43:21.426Z,91.63
2022-08-31T21:46:02.828Z,91.97
2022-08-31T21:48:33.936Z,92.00
2022-08-31T21:51:13.486Z,92.22
2022-08-31T21:53:46.025Z,92.18
2022-08-31T21:56:15.361Z,91.80
2022-08-31T21:58:44.473Z,92.09
2022-08-31T22:01:18.501Z,92.23
2022-08-31T22:03:49.285Z,92.20
2022-08-31T22:06:26.774Z,92.07
2022-08-31T22:09:00.353Z,92.31
2022-08-31T22:11:36.303Z,92.13
2022-08-31T22:14:10.265Z,92.39
2022-08-31T22:16:40.981Z,92.69
2022-08-31T22:19:13.357Z,92.55
2022-08-31T22:21:46.278Z,92.75
2022-08-31T22:24:27.469Z,92.61
2022-08-31T22:27:01.097Z,92.21
2022-08-31T22:29:34.140Z,92.42
2022-08-31T22:32:10.143Z,92.57
2022-08-31T22:34:40.389Z,92.66
2022-08-31T22:37:11.340Z,92.69
2022-08-31T22:39:42.601Z,92.52
2022-08-31T22:42:12.116Z,92.93
2022-08-31T22:44:41.140Z,92.71
2022-08-31T22:47:11.324Z,92.57
2022-08-31T22:49:40.010Z,92.50
2022-08-31T22:52:08.840Z,92.77
2022-08-31T22:54:37.644Z,92.79
2022-08-31T22:57:06.666Z,92.43
2022-08-31T22:59:35.740Z,92.62
2022-08-31T23:02:05.904Z,92.64
2022-08-31T23:04:38.609Z,92.36
2022-08-31T23:07:12.049Z,93.02
2022-08-31T23:09:40.898Z,92.91
2022-08-31T23:12:10.463Z,92.91
2022-08-31T23:14:41.267Z,92.88
2022-08-31T23:17:10.832Z,92.74
2022-08-31T23:19:43.782Z,92.80
2022-08-31T23:22:15.859Z,92.42
2022-08-31T23:24:47.677Z,93.08
2022-08-31T23:27:19.892Z,93.09
2022-08-31T23:29:56.063Z,93.29
2022-08-31T23:32:29.209Z,92.94
2022-08-31T23:34:59.612Z,93.32
2022-08-31T23:37:30.651Z,93.24
2022-08-31T23:40:03.728Z,93.08
2022-08-31T23:42:34.422Z,93.19
2022-08-31T23:45:03.702Z,93.58
2022-08-31T23:47:33.283Z,93.51
2022-08-31T23:50:08.559Z,93.87
2022-08-31T23:52:41.738Z,93.50
2022-08-31T23:55:12.320Z,93.96
2022-08-31T23:57:41.966Z,93.73
